Check out our new PWSWeather beta!
PWSweather.com
Personal Weather Stations
Station Observations
SEANO
CarmignanoIT

CarmignanoIT

Lat: 43.829667, Lon: 11.02622

Elevation: 142

Station Type: Davis Vantage Pro2

http://www.meteoseano.it

High Low Average
Temperature 57.8°F14.3°C 37.0°F2.8°C 48.1°F8.9°C
Dew Point 54.4°F12.4°C 36.0°F2.2°C 45.8°F7.7°C
Winds 12.7 mph 20.4 kmh Calm Calm 2.0 mph ESE3.2 kmh ESE
Wind Gusts 13.8 mph22.2 kmh -- 3.0 mph4.8 kmh
Humidity 98% 82% 92%
Pressure 29.59 in1002.0 mb 29.37 in994.6 mb -
Precipitation 0.37 in9.4 mm - -
Hour Temp Dew Point Humidity Winds Wind Gusts Pressure Precip Precip Rate Daily Precip Total
12:00 AM 36.7°F2.6°C 35.4°F1.9°C 95% Calm Calm -- 29.60 in1002.4 mb - 0.05 in1.3 mm 0.05 in1.3 mm
12:15 AM 36.7°F2.6°C 35.4°F1.9°C 95% Calm Calm -- 29.60 in1002.4 mb - 0.08 in2.0 mm 0.04 in1.0 mm
12:20 AM 36.8°F2.7°C 35.5°F1.9°C 95% Calm Calm -- 29.60 in1002.4 mb - 0.08 in2.0 mm 0.04 in1.0 mm
12:25 AM 36.8°F2.7°C 35.5°F1.9°C 95% Calm Calm -- 29.60 in1002.4 mb - 0.09 in2.3 mm 0.05 in1.3 mm
12:30 AM 36.8°F2.7°C 35.5°F1.9°C 95% 1.2 mph NW1.9 kmh NW 3.5 mph5.6 kmh 29.60 in1002.4 mb - 0.08 in2.0 mm 0.05 in1.3 mm
12:35 AM 36.8°F2.7°C 35.5°F1.9°C 95% Calm Calm 1.2 mph1.9 kmh 29.60 in1002.4 mb - 0.09 in2.3 mm 0.06 in1.5 mm
12:40 AM 36.9°F2.7°C 35.6°F2.0°C 95% Calm Calm -- 29.59 in1002.0 mb - 0.08 in2.0 mm 0.06 in1.5 mm
12:45 AM 36.9°F2.7°C 35.6°F2.0°C 95% Calm Calm -- 29.59 in1002.0 mb - 0.08 in2.0 mm 0.06 in1.5 mm
12:50 AM 36.9°F2.7°C 35.6°F2.0°C 95% Calm Calm -- 29.59 in1002.0 mb - 0.08 in2.0 mm 0.06 in1.5 mm
12:55 AM 37.0°F2.8°C 36.0°F2.2°C 96% Calm Calm -- 29.59 in1002.0 mb - 0.07 in1.8 mm 0.06 in1.5 mm
01:00 AM 37.0°F2.8°C 36.0°F2.2°C 96% Calm Calm -- 29.59 in1002.0 mb - 0.07 in1.8 mm 0.06 in1.5 mm
01:10 AM 37.2°F2.9°C 36.2°F2.3°C 96% Calm Calm -- 29.59 in1002.0 mb - 0.05 in1.3 mm 0.07 in1.8 mm
01:15 AM 37.3°F2.9°C 36.3°F2.4°C 96% Calm Calm 1.2 mph1.9 kmh 29.59 in1002.0 mb - 0.03 in0.8 mm 0.07 in1.8 mm
01:20 AM 37.4°F3.0°C 36.4°F2.4°C 96% Calm Calm -- 29.59 in1002.0 mb - 0.03 in0.8 mm 0.07 in1.8 mm
01:25 AM 37.4°F3.0°C 36.4°F2.4°C 96% Calm Calm -- 29.59 in1002.0 mb - 0.02 in0.5 mm 0.07 in1.8 mm
01:30 AM 37.5°F3.1°C 36.5°F2.5°C 96% Calm Calm -- 29.58 in1001.7 mb - 0.02 in0.5 mm 0.07 in1.8 mm
01:35 AM 37.6°F3.1°C 36.6°F2.6°C 96% Calm Calm -- 29.58 in1001.7 mb - 0.01 in0.3 mm 0.07 in1.8 mm
01:40 AM 37.6°F3.1°C 36.6°F2.6°C 96% Calm Calm -- 29.59 in1002.0 mb - 0.01 in0.3 mm 0.07 in1.8 mm
01:45 AM 37.5°F3.1°C 36.2°F2.3°C 95% Calm Calm -- 29.59 in1002.0 mb - 0.01 in0.3 mm 0.07 in1.8 mm
01:50 AM 37.5°F3.1°C 36.2°F2.3°C 95% Calm Calm -- 29.59 in1002.0 mb - 0.01 in0.3 mm 0.07 in1.8 mm
01:55 AM 37.4°F3.0°C 36.1°F2.3°C 95% Calm Calm -- 29.58 in1001.7 mb - 0.01 in0.3 mm 0.07 in1.8 mm
02:00 AM 37.4°F3.0°C 36.1°F2.3°C 95% Calm Calm -- 29.58 in1001.7 mb - 0.02 in0.5 mm 0.08 in2.0 mm
02:10 AM 37.7°F3.2°C 36.7°F2.6°C 96% Calm Calm -- 29.58 in1001.7 mb - 0.01 in0.3 mm 0.08 in2.0 mm
02:15 AM 37.7°F3.2°C 36.7°F2.6°C 96% Calm Calm -- 29.58 in1001.7 mb - 0.03 in0.8 mm 0.10 in2.5 mm
02:20 AM 37.8°F3.2°C 36.8°F2.7°C 96% Calm Calm -- 29.58 in1001.7 mb - 0.03 in0.8 mm 0.10 in2.5 mm
02:25 AM 37.9°F3.3°C 36.9°F2.7°C 96% Calm Calm -- 29.58 in1001.7 mb - 0.04 in1.0 mm 0.11 in2.8 mm
02:30 AM 37.9°F3.3°C 36.9°F2.7°C 96% 1.2 mph NW1.9 kmh NW 2.3 mph3.7 kmh 29.58 in1001.7 mb - 0.04 in1.0 mm 0.11 in2.8 mm
02:35 AM 37.9°F3.3°C 36.9°F2.7°C 96% 1.2 mph NW1.9 kmh NW 2.3 mph3.7 kmh 29.57 in1001.4 mb - 0.05 in1.3 mm 0.12 in3.0 mm
02:40 AM 37.9°F3.3°C 36.9°F2.7°C 96% Calm Calm 2.3 mph3.7 kmh 29.57 in1001.4 mb - 0.05 in1.3 mm 0.12 in3.0 mm
02:45 AM 37.9°F3.3°C 36.9°F2.7°C 96% Calm Calm 2.3 mph3.7 kmh 29.57 in1001.4 mb - 0.05 in1.3 mm 0.12 in3.0 mm
02:50 AM 38.0°F3.3°C 37.0°F2.8°C 96% Calm Calm 1.2 mph1.9 kmh 29.57 in1001.4 mb - 0.06 in1.5 mm 0.13 in3.3 mm
02:55 AM 38.3°F3.5°C 37.3°F2.9°C 96% Calm Calm 1.2 mph1.9 kmh 29.57 in1001.4 mb - 0.06 in1.5 mm 0.13 in3.3 mm
03:00 AM 38.4°F3.6°C 37.3°F2.9°C 96% Calm Calm 1.2 mph1.9 kmh 29.57 in1001.4 mb - 0.05 in1.3 mm 0.13 in3.3 mm
03:10 AM 38.6°F3.7°C 37.5°F3.1°C 96% Calm Calm -- 29.57 in1001.4 mb - 0.06 in1.5 mm 0.14 in3.6 mm
03:15 AM 38.5°F3.6°C 37.5°F3.1°C 96% 1.2 mph NE1.9 kmh NE 1.2 mph1.9 kmh 29.57 in1001.4 mb - 0.04 in1.0 mm 0.14 in3.6 mm
03:20 AM 38.6°F3.7°C 37.6°F3.1°C 96% Calm Calm -- 29.57 in1001.4 mb - 0.04 in1.0 mm 0.14 in3.6 mm
03:25 AM 38.5°F3.6°C 37.5°F3.1°C 96% Calm Calm -- 29.57 in1001.4 mb - 0.05 in1.3 mm 0.15 in3.8 mm
03:30 AM 38.5°F3.6°C 37.5°F3.1°C 96% Calm Calm -- 29.56 in1001.0 mb - 0.04 in1.0 mm 0.15 in3.8 mm
03:35 AM 38.6°F3.7°C 37.5°F3.1°C 96% Calm Calm -- 29.56 in1001.0 mb - 0.03 in0.8 mm 0.15 in3.8 mm
03:40 AM 38.6°F3.7°C 37.6°F3.1°C 96% Calm Calm -- 29.56 in1001.0 mb - 0.03 in0.8 mm 0.15 in3.8 mm
03:45 AM 38.6°F3.7°C 37.6°F3.1°C 96% Calm Calm -- 29.56 in1001.0 mb - 0.03 in0.8 mm 0.15 in3.8 mm
03:50 AM 38.6°F3.7°C 37.6°F3.1°C 96% Calm Calm -- 29.56 in1001.0 mb - 0.03 in0.8 mm 0.16 in4.1 mm
03:55 AM 38.6°F3.7°C 37.6°F3.1°C 96% Calm Calm 1.2 mph1.9 kmh 29.56 in1001.0 mb - 0.03 in0.8 mm 0.16 in4.1 mm
04:00 AM 38.7°F3.7°C 37.7°F3.2°C 96% Calm Calm -- 29.56 in1001.0 mb - 0.03 in0.8 mm 0.16 in4.1 mm
04:10 AM 38.8°F3.8°C 37.7°F3.2°C 96% Calm Calm -- 29.55 in1000.7 mb - 0.02 in0.5 mm 0.16 in4.1 mm
04:15 AM 38.8°F3.8°C 37.8°F3.2°C 96% Calm Calm -- 29.55 in1000.7 mb - 0.03 in0.8 mm 0.17 in4.3 mm
04:20 AM 38.8°F3.8°C 37.8°F3.2°C 96% Calm Calm -- 29.55 in1000.7 mb - 0.04 in1.0 mm 0.18 in4.6 mm
04:25 AM 38.9°F3.8°C 37.9°F3.3°C 96% Calm Calm 1.2 mph1.9 kmh 29.55 in1000.7 mb - 0.04 in1.0 mm 0.19 in4.8 mm
04:30 AM 39.0°F3.9°C 38.0°F3.3°C 96% Calm Calm -- 29.55 in1000.7 mb - 0.05 in1.3 mm 0.20 in5.1 mm
04:35 AM 39.1°F3.9°C 38.0°F3.3°C 96% 1.2 mph NE1.9 kmh NE 1.2 mph1.9 kmh 29.55 in1000.7 mb - 0.05 in1.3 mm 0.20 in5.1 mm
04:40 AM 39.2°F4.0°C 38.1°F3.4°C 96% Calm Calm -- 29.55 in1000.7 mb - 0.06 in1.5 mm 0.21 in5.3 mm
04:45 AM 39.2°F4.0°C 38.2°F3.4°C 96% Calm Calm -- 29.55 in1000.7 mb - 0.08 in2.0 mm 0.23 in5.8 mm
04:50 AM 39.3°F4.1°C 38.2°F3.4°C 96% Calm Calm -- 29.54 in1000.3 mb - 0.07 in1.8 mm 0.23 in5.8 mm
04:55 AM 39.4°F4.1°C 38.3°F3.5°C 96% Calm Calm -- 29.55 in1000.7 mb - 0.07 in1.8 mm 0.23 in5.8 mm
05:00 AM 39.4°F4.1°C 38.4°F3.6°C 96% Calm Calm -- 29.54 in1000.3 mb - 0.07 in1.8 mm 0.23 in5.8 mm
05:10 AM 39.5°F4.2°C 38.5°F3.6°C 96% Calm Calm -- 29.55 in1000.7 mb - 0.07 in1.8 mm 0.23 in5.8 mm
05:15 AM 39.6°F4.2°C 38.6°F3.7°C 96% Calm Calm -- 29.54 in1000.3 mb - 0.06 in1.5 mm 0.23 in5.8 mm
05:20 AM 39.7°F4.3°C 38.7°F3.7°C 96% Calm Calm -- 29.54 in1000.3 mb - 0.05 in1.3 mm 0.23 in5.8 mm
05:25 AM 39.8°F4.3°C 38.8°F3.8°C 96% Calm Calm -- 29.54 in1000.3 mb - 0.05 in1.3 mm 0.24 in6.1 mm
05:30 AM 39.9°F4.4°C 38.9°F3.8°C 96% Calm Calm -- 29.54 in1000.3 mb - 0.05 in1.3 mm 0.24 in6.1 mm
05:35 AM 40.1°F4.5°C 39.1°F3.9°C 96% Calm Calm 1.2 mph1.9 kmh 29.54 in1000.3 mb - 0.04 in1.0 mm 0.24 in6.1 mm
05:40 AM 40.3°F4.6°C 39.3°F4.1°C 96% Calm Calm 1.2 mph1.9 kmh 29.54 in1000.3 mb - 0.03 in0.8 mm 0.24 in6.1 mm
05:45 AM 40.5°F4.7°C 39.4°F4.1°C 96% Calm Calm -- 29.54 in1000.3 mb - 0.02 in0.5 mm 0.24 in6.1 mm
05:50 AM 40.6°F4.8°C 39.5°F4.2°C 96% Calm Calm -- 29.54 in1000.3 mb - 0.02 in0.5 mm 0.25 in6.4 mm
05:55 AM 40.7°F4.8°C 39.7°F4.3°C 96% Calm Calm -- 29.53 in1000.0 mb - 0.02 in0.5 mm 0.25 in6.4 mm
06:00 AM 40.9°F4.9°C 39.8°F4.3°C 96% Calm Calm -- 29.53 in1000.0 mb - 0.02 in0.5 mm 0.25 in6.4 mm
06:10 AM 40.9°F4.9°C 39.8°F4.3°C 96% Calm Calm -- 29.53 in1000.0 mb - 0.02 in0.5 mm 0.25 in6.4 mm
06:15 AM 40.9°F4.9°C 39.8°F4.3°C 96% Calm Calm -- 29.53 in1000.0 mb - 0.02 in0.5 mm 0.25 in6.4 mm
06:20 AM 40.8°F4.9°C 39.7°F4.3°C 96% Calm Calm -- 29.52 in999.7 mb - 0.02 in0.5 mm 0.25 in6.4 mm
06:25 AM 40.8°F4.9°C 39.7°F4.3°C 96% Calm Calm -- 29.52 in999.7 mb - 0.01 in0.3 mm 0.25 in6.4 mm
06:30 AM 40.8°F4.9°C 39.7°F4.3°C 96% Calm Calm -- 29.53 in1000.0 mb - 0.01 in0.3 mm 0.25 in6.4 mm
06:35 AM 40.8°F4.9°C 39.7°F4.3°C 96% Calm Calm -- 29.53 in1000.0 mb - 0.01 in0.3 mm 0.25 in6.4 mm
06:40 AM 40.8°F4.9°C 39.7°F4.3°C 96% Calm Calm -- 29.53 in1000.0 mb - 0.01 in0.3 mm 0.25 in6.4 mm
06:45 AM 40.8°F4.9°C 39.7°F4.3°C 96% Calm Calm 3.5 mph5.6 kmh 29.53 in1000.0 mb - 0.01 in0.3 mm 0.25 in6.4 mm
06:50 AM 40.8°F4.9°C 39.8°F4.3°C 96% 1.2 mph NE1.9 kmh NE 2.3 mph3.7 kmh 29.52 in999.7 mb - 0.00 in0.0 mm 0.25 in6.4 mm
06:55 AM 40.9°F4.9°C 39.8°F4.3°C 96% Calm Calm -- 29.52 in999.7 mb - 0.00 in0.0 mm 0.25 in6.4 mm
07:00 AM 41.0°F5.0°C 39.9°F4.4°C 96% 1.2 mph NE1.9 kmh NE 1.2 mph1.9 kmh 29.52 in999.7 mb - 0.00 in0.0 mm 0.25 in6.4 mm
07:10 AM 41.2°F5.1°C 40.1°F4.5°C 96% Calm Calm -- 29.52 in999.7 mb - 0.00 in0.0 mm 0.25 in6.4 mm
07:15 AM 41.2°F5.1°C 40.1°F4.5°C 96% Calm Calm -- 29.52 in999.7 mb - 0.00 in0.0 mm 0.25 in6.4 mm
07:20 AM 41.2°F5.1°C 40.1°F4.5°C 96% Calm Calm 1.2 mph1.9 kmh 29.52 in999.7 mb - 0.00 in0.0 mm 0.25 in6.4 mm
07:25 AM 41.3°F5.2°C 40.2°F4.6°C 96% Calm Calm -- 29.52 in999.7 mb - 0.00 in0.0 mm 0.25 in6.4 mm
07:30 AM 41.4°F5.2°C 40.3°F4.6°C 96% Calm Calm -- 29.52 in999.7 mb - 0.00 in0.0 mm 0.25 in6.4 mm
07:35 AM 41.4°F5.2°C 40.3°F4.6°C 96% Calm Calm -- 29.52 in999.7 mb - 0.00 in0.0 mm 0.25 in6.4 mm
07:40 AM 41.5°F5.3°C 40.4°F4.7°C 96% Calm Calm 1.2 mph1.9 kmh 29.52 in999.7 mb - 0.00 in0.0 mm 0.25 in6.4 mm
07:45 AM 41.5°F5.3°C 40.4°F4.7°C 96% Calm Calm 2.3 mph3.7 kmh 29.52 in999.7 mb - 0.00 in0.0 mm 0.25 in6.4 mm
07:50 AM 41.6°F5.3°C 40.5°F4.7°C 96% Calm Calm -- 29.52 in999.7 mb - 0.00 in0.0 mm 0.25 in6.4 mm
07:55 AM 41.6°F5.3°C 40.5°F4.7°C 96% Calm Calm -- 29.52 in999.7 mb - 0.00 in0.0 mm 0.25 in6.4 mm
08:00 AM 41.6°F5.3°C 40.5°F4.7°C 96% Calm Calm -- 29.52 in999.7 mb - 0.00 in0.0 mm 0.25 in6.4 mm
08:10 AM 41.7°F5.4°C 40.6°F4.8°C 96% Calm Calm -- 29.52 in999.7 mb - 0.00 in0.0 mm 0.25 in6.4 mm
08:15 AM 41.8°F5.4°C 40.7°F4.8°C 96% Calm Calm -- 29.52 in999.7 mb - 0.00 in0.0 mm 0.25 in6.4 mm
08:20 AM 41.8°F5.4°C 40.8°F4.9°C 96% Calm Calm -- 29.52 in999.7 mb - 0.00 in0.0 mm 0.25 in6.4 mm
08:25 AM 41.9°F5.5°C 40.8°F4.9°C 96% Calm Calm -- 29.52 in999.7 mb - 0.00 in0.0 mm 0.25 in6.4 mm
08:30 AM 41.9°F5.5°C 40.8°F4.9°C 96% Calm Calm -- 29.52 in999.7 mb - 0.00 in0.0 mm 0.25 in6.4 mm
08:35 AM 42.0°F5.6°C 40.9°F4.9°C 96% Calm Calm -- 29.52 in999.7 mb - 0.00 in0.0 mm 0.25 in6.4 mm
08:40 AM 42.1°F5.6°C 41.0°F5.0°C 96% Calm Calm -- 29.52 in999.7 mb - 0.00 in0.0 mm 0.25 in6.4 mm
08:45 AM 42.1°F5.6°C 41.0°F5.0°C 96% Calm Calm -- 29.52 in999.7 mb - 0.00 in0.0 mm 0.25 in6.4 mm
08:50 AM 42.2°F5.7°C 41.1°F5.1°C 96% Calm Calm -- 29.52 in999.7 mb - 0.00 in0.0 mm 0.25 in6.4 mm
08:55 AM 42.2°F5.7°C 41.1°F5.1°C 96% Calm Calm -- 29.52 in999.7 mb - 0.00 in0.0 mm 0.25 in6.4 mm
09:00 AM 42.3°F5.7°C 41.2°F5.1°C 96% Calm Calm 1.2 mph1.9 kmh 29.52 in999.7 mb - 0.00 in0.0 mm 0.25 in6.4 mm
09:10 AM 42.5°F5.8°C 41.4°F5.2°C 96% 1.2 mph NE1.9 kmh NE 2.3 mph3.7 kmh 29.51 in999.3 mb - 0.00 in0.0 mm 0.25 in6.4 mm
09:15 AM 42.6°F5.9°C 41.5°F5.3°C 96% Calm Calm 1.2 mph1.9 kmh 29.51 in999.3 mb - 0.00 in0.0 mm 0.25 in6.4 mm
09:20 AM 42.6°F5.9°C 41.5°F5.3°C 96% Calm Calm -- 29.51 in999.3 mb - 0.00 in0.0 mm 0.25 in6.4 mm
09:25 AM 42.7°F5.9°C 41.7°F5.4°C 96% 1.2 mph NE1.9 kmh NE 2.3 mph3.7 kmh 29.51 in999.3 mb - 0.00 in0.0 mm 0.25 in6.4 mm
09:30 AM 42.9°F6.1°C 41.8°F5.4°C 96% 1.2 mph NE1.9 kmh NE 3.5 mph5.6 kmh 29.51 in999.3 mb - 0.00 in0.0 mm 0.25 in6.4 mm
09:35 AM 43.1°F6.2°C 42.0°F5.6°C 96% 2.3 mph NE3.7 kmh NE 3.5 mph5.6 kmh 29.50 in999.0 mb - 0.00 in0.0 mm 0.25 in6.4 mm
09:40 AM 43.3°F6.3°C 42.5°F5.8°C 97% Calm Calm 1.2 mph1.9 kmh 29.50 in999.0 mb - 0.00 in0.0 mm 0.25 in6.4 mm
09:45 AM 43.5°F6.4°C 42.7°F5.9°C 97% Calm Calm 3.5 mph5.6 kmh 29.50 in999.0 mb - 0.00 in0.0 mm 0.25 in6.4 mm
09:50 AM 43.7°F6.5°C 42.6°F5.9°C 96% Calm Calm -- 29.50 in999.0 mb - 0.00 in0.0 mm 0.25 in6.4 mm
09:55 AM 43.9°F6.6°C 42.8°F6.0°C 96% 1.2 mph NE1.9 kmh NE 1.2 mph1.9 kmh 29.50 in999.0 mb - 0.00 in0.0 mm 0.25 in6.4 mm
10:00 AM 44.0°F6.7°C 43.2°F6.2°C 97% Calm Calm -- 29.50 in999.0 mb - 0.00 in0.0 mm 0.25 in6.4 mm
10:10 AM 44.2°F6.8°C 43.1°F6.2°C 96% Calm Calm -- 29.50 in999.0 mb - 0.00 in0.0 mm 0.25 in6.4 mm
10:15 AM 44.3°F6.8°C 43.2°F6.2°C 96% Calm Calm 1.2 mph1.9 kmh 29.50 in999.0 mb - 0.00 in0.0 mm 0.25 in6.4 mm
10:20 AM 44.6°F7.0°C 43.5°F6.4°C 96% Calm Calm -- 29.50 in999.0 mb - 0.00 in0.0 mm 0.25 in6.4 mm
10:25 AM 44.8°F7.1°C 44.0°F6.7°C 97% Calm Calm -- 29.50 in999.0 mb - 0.00 in0.0 mm 0.25 in6.4 mm
10:30 AM 44.9°F7.2°C 44.1°F6.7°C 97% Calm Calm -- 29.50 in999.0 mb - 0.00 in0.0 mm 0.25 in6.4 mm
10:35 AM 45.0°F7.2°C 44.2°F6.8°C 97% Calm Calm -- 29.50 in999.0 mb - 0.00 in0.0 mm 0.25 in6.4 mm
10:40 AM 45.0°F7.2°C 43.9°F6.6°C 96% Calm Calm -- 29.50 in999.0 mb - 0.00 in0.0 mm 0.25 in6.4 mm
10:45 AM 45.1°F7.3°C 44.0°F6.7°C 96% Calm Calm -- 29.50 in999.0 mb - 0.00 in0.0 mm 0.25 in6.4 mm
10:50 AM 45.1°F7.3°C 44.3°F6.8°C 97% Calm Calm -- 29.50 in999.0 mb - 0.00 in0.0 mm 0.25 in6.4 mm
10:55 AM 45.1°F7.3°C 44.3°F6.8°C 97% Calm Calm -- 29.50 in999.0 mb - 0.00 in0.0 mm 0.25 in6.4 mm
11:00 AM 45.1°F7.3°C 44.3°F6.8°C 97% Calm Calm -- 29.51 in999.3 mb - 0.00 in0.0 mm 0.25 in6.4 mm
11:10 AM 45.1°F7.3°C 44.3°F6.8°C 97% Calm Calm -- 29.51 in999.3 mb - 0.00 in0.0 mm 0.25 in6.4 mm
11:15 AM 45.1°F7.3°C 44.3°F6.8°C 97% Calm Calm -- 29.50 in999.0 mb - 0.00 in0.0 mm 0.25 in6.4 mm
11:20 AM 45.1°F7.3°C 44.3°F6.8°C 97% Calm Calm -- 29.50 in999.0 mb - 0.00 in0.0 mm 0.25 in6.4 mm
11:25 AM 45.1°F7.3°C 44.3°F6.8°C 97% Calm Calm -- 29.50 in999.0 mb - 0.00 in0.0 mm 0.25 in6.4 mm
11:30 AM 45.0°F7.2°C 43.9°F6.6°C 96% Calm Calm 2.3 mph3.7 kmh 29.50 in999.0 mb - 0.00 in0.0 mm 0.25 in6.4 mm
11:35 AM 44.9°F7.2°C 43.8°F6.6°C 96% 1.2 mph NE1.9 kmh NE 3.5 mph5.6 kmh 29.50 in999.0 mb - 0.00 in0.0 mm 0.25 in6.4 mm
11:40 AM 44.8°F7.1°C 43.7°F6.5°C 96% 2.3 mph NE3.7 kmh NE 3.5 mph5.6 kmh 29.50 in999.0 mb - 0.00 in0.0 mm 0.25 in6.4 mm
11:45 AM 44.8°F7.1°C 43.7°F6.5°C 96% Calm Calm -- 29.50 in999.0 mb - 0.00 in0.0 mm 0.25 in6.4 mm
11:50 AM 44.8°F7.1°C 43.7°F6.5°C 96% 1.2 mph NE1.9 kmh NE 2.3 mph3.7 kmh 29.49 in998.6 mb - 0.00 in0.0 mm 0.25 in6.4 mm
11:55 AM 44.8°F7.1°C 43.7°F6.5°C 96% 2.3 mph NE3.7 kmh NE 3.5 mph5.6 kmh 29.49 in998.6 mb - 0.00 in0.0 mm 0.25 in6.4 mm
12:00 PM 44.9°F7.2°C 43.8°F6.6°C 96% 1.2 mph NE1.9 kmh NE 2.3 mph3.7 kmh 29.49 in998.6 mb - 0.00 in0.0 mm 0.25 in6.4 mm
12:10 PM 45.0°F7.2°C 43.9°F6.6°C 96% 1.2 mph ENE1.9 kmh ENE 3.5 mph5.6 kmh 29.49 in998.6 mb - 0.00 in0.0 mm 0.25 in6.4 mm
12:15 PM 45.0°F7.2°C 43.9°F6.6°C 96% 2.3 mph ENE3.7 kmh ENE 3.5 mph5.6 kmh 29.48 in998.3 mb - 0.00 in0.0 mm 0.25 in6.4 mm
12:20 PM 45.0°F7.2°C 43.9°F6.6°C 96% 2.3 mph ENE3.7 kmh ENE 3.5 mph5.6 kmh 29.48 in998.3 mb - 0.00 in0.0 mm 0.25 in6.4 mm
12:25 PM 45.0°F7.2°C 43.9°F6.6°C 96% Calm Calm 1.2 mph1.9 kmh 29.48 in998.3 mb - 0.00 in0.0 mm 0.25 in6.4 mm
12:30 PM 45.1°F7.3°C 44.3°F6.8°C 97% 2.3 mph ENE3.7 kmh ENE 3.5 mph5.6 kmh 29.48 in998.3 mb - 0.00 in0.0 mm 0.25 in6.4 mm
12:35 PM 45.2°F7.3°C 44.4°F6.9°C 97% 1.2 mph ENE1.9 kmh ENE 2.3 mph3.7 kmh 29.47 in998.0 mb - 0.00 in0.0 mm 0.25 in6.4 mm
12:40 PM 45.4°F7.4°C 44.6°F7.0°C 97% Calm Calm 1.2 mph1.9 kmh 29.47 in998.0 mb - 0.00 in0.0 mm 0.25 in6.4 mm
12:45 PM 45.5°F7.5°C 44.7°F7.1°C 97% Calm Calm -- 29.47 in998.0 mb - 0.00 in0.0 mm 0.25 in6.4 mm
12:50 PM 45.6°F7.6°C 44.8°F7.1°C 97% Calm Calm 1.2 mph1.9 kmh 29.46 in997.6 mb - 0.00 in0.0 mm 0.25 in6.4 mm
12:55 PM 45.8°F7.7°C 45.0°F7.2°C 97% Calm Calm -- 29.46 in997.6 mb - 0.00 in0.0 mm 0.25 in6.4 mm
01:00 PM 45.9°F7.7°C 45.1°F7.3°C 97% Calm Calm 3.5 mph5.6 kmh 29.45 in997.3 mb - 0.00 in0.0 mm 0.25 in6.4 mm
01:10 PM 50.7°F10.4°C 49.9°F9.9°C 97% 5.8 mph SE9.3 kmh SE 8.1 mph13.0 kmh 29.44 in997.0 mb - 0.01 in0.3 mm 0.26 in6.6 mm
01:15 PM 52.3°F11.3°C 51.7°F10.9°C 98% 3.5 mph SE5.6 kmh SE 5.8 mph9.3 kmh 29.44 in997.0 mb - 0.01 in0.3 mm 0.26 in6.6 mm
01:20 PM 52.8°F11.6°C 52.3°F11.3°C 98% 2.3 mph SE3.7 kmh SE 4.6 mph7.4 kmh 29.44 in997.0 mb - 0.01 in0.3 mm 0.26 in6.6 mm
01:25 PM 53.1°F11.7°C 52.3°F11.3°C 97% 3.5 mph SE5.6 kmh SE 3.5 mph5.6 kmh 29.43 in996.6 mb - 0.01 in0.3 mm 0.26 in6.6 mm
01:30 PM 53.3°F11.8°C 52.8°F11.6°C 98% 3.5 mph SE5.6 kmh SE 6.9 mph11.1 kmh 29.43 in996.6 mb - 0.01 in0.3 mm 0.26 in6.6 mm
01:35 PM 53.5°F11.9°C 53.0°F11.7°C 98% 4.6 mph SE7.4 kmh SE 8.1 mph13.0 kmh 29.43 in996.6 mb - 0.01 in0.3 mm 0.26 in6.6 mm
01:40 PM 53.8°F12.1°C 53.0°F11.7°C 97% 4.6 mph SSE7.4 kmh SSE 11.5 mph18.5 kmh 29.43 in996.6 mb - 0.01 in0.3 mm 0.26 in6.6 mm
01:45 PM 54.0°F12.2°C 53.2°F11.8°C 97% 4.6 mph SE7.4 kmh SE 6.9 mph11.1 kmh 29.43 in996.6 mb - 0.01 in0.3 mm 0.26 in6.6 mm
01:50 PM 54.2°F12.3°C 53.4°F11.9°C 97% 3.5 mph SSE5.6 kmh SSE 4.6 mph7.4 kmh 29.43 in996.6 mb - 0.01 in0.3 mm 0.26 in6.6 mm
01:55 PM 54.4°F12.4°C 53.6°F12.0°C 97% 4.6 mph SE7.4 kmh SE 8.1 mph13.0 kmh 29.43 in996.6 mb - 0.01 in0.3 mm 0.26 in6.6 mm
02:00 PM 54.5°F12.5°C 53.4°F11.9°C 96% 4.6 mph SE7.4 kmh SE 6.9 mph11.1 kmh 29.42 in996.3 mb - 0.01 in0.3 mm 0.26 in6.6 mm
02:10 PM 55.0°F12.8°C 53.9°F12.2°C 96% 2.3 mph SE3.7 kmh SE 3.5 mph5.6 kmh 29.42 in996.3 mb - 0.00 in0.0 mm 0.26 in6.6 mm
02:15 PM 55.1°F12.8°C 54.0°F12.2°C 96% 3.5 mph SSE5.6 kmh SSE 5.8 mph9.3 kmh 29.43 in996.6 mb - 0.00 in0.0 mm 0.26 in6.6 mm
02:20 PM 55.3°F12.9°C 53.9°F12.2°C 95% 2.3 mph SE3.7 kmh SE 6.9 mph11.1 kmh 29.42 in996.3 mb - 0.00 in0.0 mm 0.26 in6.6 mm
02:25 PM 55.6°F13.1°C 54.2°F12.3°C 95% 5.8 mph SE9.3 kmh SE 6.9 mph11.1 kmh 29.42 in996.3 mb - 0.00 in0.0 mm 0.26 in6.6 mm
02:30 PM 55.8°F13.2°C 54.4°F12.4°C 95% 3.5 mph ESE5.6 kmh ESE 3.5 mph5.6 kmh 29.42 in996.3 mb - 0.00 in0.0 mm 0.26 in6.6 mm
02:35 PM 56.0°F13.3°C 54.3°F12.4°C 94% 6.9 mph SE11.1 kmh SE 10.4 mph16.7 kmh 29.42 in996.3 mb - 0.00 in0.0 mm 0.26 in6.6 mm
02:40 PM 56.3°F13.5°C 54.3°F12.4°C 93% 2.3 mph SE3.7 kmh SE 3.5 mph5.6 kmh 29.42 in996.3 mb - 0.00 in0.0 mm 0.26 in6.6 mm
02:45 PM 56.5°F13.6°C 54.2°F12.3°C 92% 4.6 mph SE7.4 kmh SE 8.1 mph13.0 kmh 29.42 in996.3 mb - 0.00 in0.0 mm 0.26 in6.6 mm
02:50 PM 56.8°F13.8°C 54.2°F12.3°C 91% 4.6 mph SE7.4 kmh SE 9.2 mph14.8 kmh 29.41 in995.9 mb - 0.00 in0.0 mm 0.26 in6.6 mm
02:55 PM 57.2°F14.0°C 54.0°F12.2°C 89% 2.3 mph SE3.7 kmh SE 3.5 mph5.6 kmh 29.41 in995.9 mb - 0.00 in0.0 mm 0.26 in6.6 mm
03:00 PM 57.4°F14.1°C 53.6°F12.0°C 87% 2.3 mph SE3.7 kmh SE 3.5 mph5.6 kmh 29.41 in995.9 mb - 0.00 in0.0 mm 0.26 in6.6 mm
03:10 PM 57.5°F14.2°C 53.3°F11.8°C 86% Calm Calm -- 29.41 in995.9 mb - 0.00 in0.0 mm 0.26 in6.6 mm
03:15 PM 57.6°F14.2°C 53.4°F11.9°C 86% Calm Calm -- 29.41 in995.9 mb - 0.00 in0.0 mm 0.26 in6.6 mm
03:20 PM 57.6°F14.2°C 53.1°F11.7°C 85% 1.2 mph SE1.9 kmh SE -- 29.41 in995.9 mb - 0.00 in0.0 mm 0.26 in6.6 mm
03:25 PM 57.6°F14.2°C 53.1°F11.7°C 85% Calm Calm 2.3 mph3.7 kmh 29.41 in995.9 mb - 0.00 in0.0 mm 0.26 in6.6 mm
03:30 PM 57.6°F14.2°C 53.1°F11.7°C 85% 3.5 mph SE5.6 kmh SE 8.1 mph13.0 kmh 29.42 in996.3 mb - 0.00 in0.0 mm 0.26 in6.6 mm
03:35 PM 57.6°F14.2°C 52.8°F11.6°C 84% 3.5 mph SE5.6 kmh SE 4.6 mph7.4 kmh 29.42 in996.3 mb - 0.00 in0.0 mm 0.26 in6.6 mm
03:40 PM 57.7°F14.3°C 52.9°F11.6°C 84% 1.2 mph SE1.9 kmh SE 1.2 mph1.9 kmh 29.42 in996.3 mb - 0.00 in0.0 mm 0.26 in6.6 mm
03:45 PM 57.7°F14.3°C 52.9°F11.6°C 84% 1.2 mph SE1.9 kmh SE 2.3 mph3.7 kmh 29.42 in996.3 mb - 0.00 in0.0 mm 0.26 in6.6 mm
03:50 PM 57.7°F14.3°C 52.6°F11.4°C 83% 4.6 mph SE7.4 kmh SE 3.5 mph5.6 kmh 29.41 in995.9 mb - 0.00 in0.0 mm 0.26 in6.6 mm
03:55 PM 57.8°F14.3°C 52.7°F11.5°C 83% 2.3 mph SE3.7 kmh SE 3.5 mph5.6 kmh 29.42 in996.3 mb - 0.00 in0.0 mm 0.26 in6.6 mm
04:00 PM 57.8°F14.3°C 52.6°F11.4°C 83% Calm Calm 2.3 mph3.7 kmh 29.42 in996.3 mb - 0.00 in0.0 mm 0.26 in6.6 mm
04:10 PM 57.6°F14.2°C 52.5°F11.4°C 83% 1.2 mph SE1.9 kmh SE 9.2 mph14.8 kmh 29.41 in995.9 mb - 0.01 in0.3 mm 0.27 in6.9 mm
04:15 PM 57.6°F14.2°C 52.5°F11.4°C 83% 2.3 mph SE3.7 kmh SE 3.5 mph5.6 kmh 29.42 in996.3 mb - 0.01 in0.3 mm 0.27 in6.9 mm
04:20 PM 57.6°F14.2°C 52.5°F11.4°C 83% 1.2 mph SE1.9 kmh SE 2.3 mph3.7 kmh 29.41 in995.9 mb - 0.01 in0.3 mm 0.27 in6.9 mm
04:25 PM 57.5°F14.2°C 52.4°F11.3°C 83% 3.5 mph SE5.6 kmh SE 3.5 mph5.6 kmh 29.41 in995.9 mb - 0.01 in0.3 mm 0.27 in6.9 mm
04:30 PM 57.4°F14.1°C 52.3°F11.3°C 83% Calm Calm 1.2 mph1.9 kmh 29.41 in995.9 mb - 0.01 in0.3 mm 0.27 in6.9 mm
04:35 PM 57.3°F14.1°C 52.2°F11.2°C 83% 1.2 mph SE1.9 kmh SE 2.3 mph3.7 kmh 29.41 in995.9 mb - 0.01 in0.3 mm 0.27 in6.9 mm
04:40 PM 57.2°F14.0°C 52.1°F11.2°C 83% 1.2 mph SE1.9 kmh SE 3.5 mph5.6 kmh 29.41 in995.9 mb - 0.01 in0.3 mm 0.27 in6.9 mm
04:45 PM 57.1°F13.9°C 52.0°F11.1°C 83% 1.2 mph SE1.9 kmh SE 2.3 mph3.7 kmh 29.41 in995.9 mb - 0.01 in0.3 mm 0.27 in6.9 mm
04:50 PM 57.1°F13.9°C 52.3°F11.3°C 84% 2.3 mph SE3.7 kmh SE 3.5 mph5.6 kmh 29.41 in995.9 mb - 0.01 in0.3 mm 0.27 in6.9 mm
04:55 PM 57.0°F13.9°C 51.9°F11.1°C 83% Calm Calm 1.2 mph1.9 kmh 29.40 in995.6 mb - 0.01 in0.3 mm 0.27 in6.9 mm
05:00 PM 56.9°F13.8°C 52.1°F11.2°C 84% Calm Calm -- 29.41 in995.9 mb - 0.01 in0.3 mm 0.27 in6.9 mm
05:10 PM 56.5°F13.6°C 52.0°F11.1°C 85% Calm Calm 1.2 mph1.9 kmh 29.40 in995.6 mb - 0.01 in0.3 mm 0.28 in7.1 mm
05:15 PM 56.4°F13.6°C 51.9°F11.1°C 85% 1.2 mph SE1.9 kmh SE 2.3 mph3.7 kmh 29.40 in995.6 mb - 0.01 in0.3 mm 0.28 in7.1 mm
05:20 PM 56.3°F13.5°C 51.9°F11.1°C 85% Calm Calm -- 29.40 in995.6 mb - 0.02 in0.5 mm 0.29 in7.4 mm
05:25 PM 56.3°F13.5°C 52.2°F11.2°C 86% 3.5 mph SE5.6 kmh SE 4.6 mph7.4 kmh 29.40 in995.6 mb - 0.02 in0.5 mm 0.29 in7.4 mm
05:30 PM 56.2°F13.4°C 51.8°F11.0°C 85% 1.2 mph SE1.9 kmh SE 2.3 mph3.7 kmh 29.40 in995.6 mb - 0.03 in0.8 mm 0.30 in7.6 mm
05:35 PM 56.1°F13.4°C 52.0°F11.1°C 86% Calm Calm -- 29.40 in995.6 mb - 0.03 in0.8 mm 0.30 in7.6 mm
05:40 PM 56.0°F13.3°C 51.9°F11.1°C 86% Calm Calm 1.2 mph1.9 kmh 29.40 in995.6 mb - 0.03 in0.8 mm 0.30 in7.6 mm
05:45 PM 55.9°F13.3°C 51.8°F11.0°C 86% Calm Calm 1.2 mph1.9 kmh 29.40 in995.6 mb - 0.03 in0.8 mm 0.30 in7.6 mm
05:50 PM 55.8°F13.2°C 51.7°F10.9°C 86% 2.3 mph ESE3.7 kmh ESE 3.5 mph5.6 kmh 29.40 in995.6 mb - 0.03 in0.8 mm 0.30 in7.6 mm
05:55 PM 55.7°F13.2°C 51.9°F11.1°C 87% 2.3 mph ESE3.7 kmh ESE 3.5 mph5.6 kmh 29.40 in995.6 mb - 0.04 in1.0 mm 0.31 in7.9 mm
06:00 PM 55.6°F13.1°C 51.8°F11.0°C 87% 1.2 mph SE1.9 kmh SE 3.5 mph5.6 kmh 29.40 in995.6 mb - 0.04 in1.0 mm 0.31 in7.9 mm
06:10 PM 55.4°F13.0°C 51.6°F10.9°C 87% 2.3 mph ESE3.7 kmh ESE 3.5 mph5.6 kmh 29.40 in995.6 mb - 0.03 in0.8 mm 0.31 in7.9 mm
06:15 PM 55.3°F12.9°C 51.8°F11.0°C 88% 3.5 mph E5.6 kmh E 6.9 mph11.1 kmh 29.40 in995.6 mb - 0.04 in1.0 mm 0.32 in8.1 mm
06:20 PM 55.3°F12.9°C 51.8°F11.0°C 88% 1.2 mph ESE1.9 kmh ESE 2.3 mph3.7 kmh 29.40 in995.6 mb - 0.03 in0.8 mm 0.32 in8.1 mm
06:25 PM 55.3°F12.9°C 51.8°F11.0°C 88% 2.3 mph ESE3.7 kmh ESE 3.5 mph5.6 kmh 29.40 in995.6 mb - 0.03 in0.8 mm 0.32 in8.1 mm
06:30 PM 55.3°F12.9°C 52.1°F11.2°C 89% 3.5 mph SE5.6 kmh SE 6.9 mph11.1 kmh 29.40 in995.6 mb - 0.02 in0.5 mm 0.32 in8.1 mm
06:35 PM 55.2°F12.9°C 52.1°F11.2°C 89% 2.3 mph ESE3.7 kmh ESE 5.8 mph9.3 kmh 29.40 in995.6 mb - 0.02 in0.5 mm 0.32 in8.1 mm
06:40 PM 55.2°F12.9°C 52.0°F11.1°C 89% 3.5 mph E5.6 kmh E 5.8 mph9.3 kmh 29.40 in995.6 mb - 0.02 in0.5 mm 0.32 in8.1 mm
06:45 PM 55.1°F12.8°C 51.9°F11.1°C 89% 4.6 mph E7.4 kmh E 6.9 mph11.1 kmh 29.40 in995.6 mb - 0.03 in0.8 mm 0.33 in8.4 mm
06:50 PM 55.1°F12.8°C 51.9°F11.1°C 89% 2.3 mph E3.7 kmh E 3.5 mph5.6 kmh 29.40 in995.6 mb - 0.03 in0.8 mm 0.33 in8.4 mm
06:55 PM 55.0°F12.8°C 51.8°F11.0°C 89% 1.2 mph E1.9 kmh E 3.5 mph5.6 kmh 29.41 in995.9 mb - 0.03 in0.8 mm 0.33 in8.4 mm
07:00 PM 55.0°F12.8°C 52.1°F11.2°C 90% 1.2 mph SE1.9 kmh SE 3.5 mph5.6 kmh 29.41 in995.9 mb - 0.03 in0.8 mm 0.34 in8.6 mm
07:10 PM 54.9°F12.7°C 52.0°F11.1°C 90% 5.8 mph SE9.3 kmh SE 9.2 mph14.8 kmh 29.41 in995.9 mb - 0.03 in0.8 mm 0.34 in8.6 mm
07:15 PM 55.0°F12.8°C 52.1°F11.2°C 90% 4.6 mph SE7.4 kmh SE 9.2 mph14.8 kmh 29.41 in995.9 mb - 0.02 in0.5 mm 0.34 in8.6 mm
07:20 PM 55.1°F12.8°C 52.0°F11.1°C 89% 10.4 mph SE16.7 kmh SE 11.5 mph18.5 kmh 29.41 in995.9 mb - 0.03 in0.8 mm 0.35 in8.9 mm
07:25 PM 55.3°F12.9°C 52.1°F11.2°C 89% 6.9 mph SE11.1 kmh SE 11.5 mph18.5 kmh 29.41 in995.9 mb - 0.03 in0.8 mm 0.35 in8.9 mm
07:30 PM 55.4°F13.0°C 51.9°F11.1°C 88% 12.7 mph SE20.4 kmh SE 12.7 mph20.4 kmh 29.41 in995.9 mb - 0.03 in0.8 mm 0.35 in8.9 mm
07:35 PM 55.7°F13.2°C 51.9°F11.1°C 87% 9.2 mph ESE14.8 kmh ESE 10.4 mph16.7 kmh 29.41 in995.9 mb - 0.03 in0.8 mm 0.35 in8.9 mm
07:40 PM 55.8°F13.2°C 51.7°F10.9°C 86% 6.9 mph SE11.1 kmh SE 10.4 mph16.7 kmh 29.41 in995.9 mb - 0.03 in0.8 mm 0.35 in8.9 mm
07:45 PM 55.9°F13.3°C 51.8°F11.0°C 86% 5.8 mph SE9.3 kmh SE 10.4 mph16.7 kmh 29.41 in995.9 mb - 0.02 in0.5 mm 0.35 in8.9 mm
07:50 PM 56.0°F13.3°C 51.6°F10.9°C 85% 10.4 mph SE16.7 kmh SE 12.7 mph20.4 kmh 29.41 in995.9 mb - 0.02 in0.5 mm 0.35 in8.9 mm
07:55 PM 56.1°F13.4°C 51.7°F10.9°C 85% 5.8 mph SSE9.3 kmh SSE 9.2 mph14.8 kmh 29.41 in995.9 mb - 0.02 in0.5 mm 0.35 in8.9 mm
08:00 PM 56.1°F13.4°C 51.3°F10.7°C 84% 8.1 mph SE13.0 kmh SE 12.7 mph20.4 kmh 29.41 in995.9 mb - 0.01 in0.3 mm 0.35 in8.9 mm
08:10 PM 55.9°F13.3°C 51.5°F10.8°C 85% 8.1 mph SE13.0 kmh SE 11.5 mph18.5 kmh 29.41 in995.9 mb - 0.01 in0.3 mm 0.35 in8.9 mm
08:15 PM 55.8°F13.2°C 51.4°F10.8°C 85% 6.9 mph SE11.1 kmh SE 6.9 mph11.1 kmh 29.41 in995.9 mb - 0.01 in0.3 mm 0.35 in8.9 mm
08:20 PM 55.7°F13.2°C 51.3°F10.7°C 85% 3.5 mph E5.6 kmh E 5.8 mph9.3 kmh 29.40 in995.6 mb - 0.00 in0.0 mm 0.35 in8.9 mm
08:25 PM 55.5°F13.1°C 51.4°F10.8°C 86% 5.8 mph E9.3 kmh E 6.9 mph11.1 kmh 29.40 in995.6 mb - 0.00 in0.0 mm 0.35 in8.9 mm
08:30 PM 55.3°F12.9°C 51.2°F10.7°C 86% 4.6 mph E7.4 kmh E 5.8 mph9.3 kmh 29.40 in995.6 mb - 0.00 in0.0 mm 0.35 in8.9 mm
08:35 PM 55.1°F12.8°C 51.3°F10.7°C 87% 4.6 mph E7.4 kmh E 6.9 mph11.1 kmh 29.40 in995.6 mb - 0.00 in0.0 mm 0.35 in8.9 mm
08:40 PM 54.9°F12.7°C 51.4°F10.8°C 88% 3.5 mph E5.6 kmh E 6.9 mph11.1 kmh 29.40 in995.6 mb - 0.00 in0.0 mm 0.35 in8.9 mm
08:45 PM 54.8°F12.7°C 51.3°F10.7°C 88% 3.5 mph E5.6 kmh E 6.9 mph11.1 kmh 29.40 in995.6 mb - 0.00 in0.0 mm 0.35 in8.9 mm
08:50 PM 54.8°F12.7°C 51.3°F10.7°C 88% 5.8 mph E9.3 kmh E 8.1 mph13.0 kmh 29.40 in995.6 mb - 0.00 in0.0 mm 0.35 in8.9 mm
08:55 PM 54.8°F12.7°C 51.3°F10.7°C 88% 4.6 mph E7.4 kmh E 6.9 mph11.1 kmh 29.40 in995.6 mb - 0.00 in0.0 mm 0.35 in8.9 mm
09:00 PM 54.8°F12.7°C 51.3°F10.7°C 88% 4.6 mph E7.4 kmh E 10.4 mph16.7 kmh 29.40 in995.6 mb - 0.00 in0.0 mm 0.35 in8.9 mm
09:10 PM 54.9°F12.7°C 51.4°F10.8°C 88% 4.6 mph E7.4 kmh E 6.9 mph11.1 kmh 29.41 in995.9 mb - 0.00 in0.0 mm 0.35 in8.9 mm
09:15 PM 55.0°F12.8°C 51.5°F10.8°C 88% 6.9 mph ESE11.1 kmh ESE 11.5 mph18.5 kmh 29.41 in995.9 mb - 0.00 in0.0 mm 0.35 in8.9 mm
09:20 PM 55.2°F12.9°C 51.7°F10.9°C 88% 3.5 mph E5.6 kmh E 5.8 mph9.3 kmh 29.41 in995.9 mb - 0.00 in0.0 mm 0.35 in8.9 mm
09:25 PM 55.3°F12.9°C 51.5°F10.8°C 87% 5.8 mph E9.3 kmh E 8.1 mph13.0 kmh 29.41 in995.9 mb - 0.00 in0.0 mm 0.35 in8.9 mm
09:30 PM 55.4°F13.0°C 51.5°F10.8°C 87% 3.5 mph E5.6 kmh E 5.8 mph9.3 kmh 29.41 in995.9 mb - 0.00 in0.0 mm 0.35 in8.9 mm
09:35 PM 55.3°F12.9°C 51.5°F10.8°C 87% 4.6 mph E7.4 kmh E 6.9 mph11.1 kmh 29.40 in995.6 mb - 0.00 in0.0 mm 0.35 in8.9 mm
09:40 PM 55.2°F12.9°C 51.4°F10.8°C 87% 5.8 mph E9.3 kmh E 6.9 mph11.1 kmh 29.40 in995.6 mb - 0.00 in0.0 mm 0.35 in8.9 mm
09:45 PM 55.1°F12.8°C 51.3°F10.7°C 87% 4.6 mph E7.4 kmh E 9.2 mph14.8 kmh 29.40 in995.6 mb - 0.00 in0.0 mm 0.35 in8.9 mm
09:50 PM 55.1°F12.8°C 51.3°F10.7°C 87% 5.8 mph E9.3 kmh E 6.9 mph11.1 kmh 29.40 in995.6 mb - 0.00 in0.0 mm 0.35 in8.9 mm
09:55 PM 55.2°F12.9°C 51.0°F10.6°C 86% 6.9 mph E11.1 kmh E 10.4 mph16.7 kmh 29.40 in995.6 mb - 0.00 in0.0 mm 0.35 in8.9 mm
10:00 PM 55.3°F12.9°C 50.9°F10.5°C 85% 8.1 mph E13.0 kmh E 9.2 mph14.8 kmh 29.40 in995.6 mb - 0.00 in0.0 mm 0.35 in8.9 mm
10:10 PM 55.6°F13.1°C 50.8°F10.4°C 84% 9.2 mph ESE14.8 kmh ESE 11.5 mph18.5 kmh 29.40 in995.6 mb - 0.00 in0.0 mm 0.35 in8.9 mm
10:15 PM 55.7°F13.2°C 50.6°F10.3°C 83% 6.9 mph E11.1 kmh E 10.4 mph16.7 kmh 29.39 in995.3 mb - 0.00 in0.0 mm 0.35 in8.9 mm
10:20 PM 55.7°F13.2°C 50.6°F10.3°C 83% 3.5 mph ESE5.6 kmh ESE 5.8 mph9.3 kmh 29.39 in995.3 mb - 0.00 in0.0 mm 0.35 in8.9 mm
10:25 PM 55.7°F13.2°C 50.6°F10.3°C 83% 6.9 mph E11.1 kmh E 8.1 mph13.0 kmh 29.39 in995.3 mb - 0.00 in0.0 mm 0.35 in8.9 mm
10:30 PM 55.7°F13.2°C 50.6°F10.3°C 83% 5.8 mph E9.3 kmh E 8.1 mph13.0 kmh 29.39 in995.3 mb - 0.00 in0.0 mm 0.35 in8.9 mm
10:35 PM 55.6°F13.1°C 50.6°F10.3°C 83% 6.9 mph E11.1 kmh E 9.2 mph14.8 kmh 29.39 in995.3 mb - 0.00 in0.0 mm 0.35 in8.9 mm
10:40 PM 55.7°F13.2°C 50.6°F10.3°C 83% 5.8 mph E9.3 kmh E 9.2 mph14.8 kmh 29.39 in995.3 mb - 0.00 in0.0 mm 0.35 in8.9 mm
10:45 PM 55.7°F13.2°C 50.6°F10.3°C 83% 4.6 mph E7.4 kmh E 8.1 mph13.0 kmh 29.39 in995.3 mb - 0.00 in0.0 mm 0.35 in8.9 mm
10:50 PM 55.7°F13.2°C 50.6°F10.3°C 83% 6.9 mph E11.1 kmh E 9.2 mph14.8 kmh 29.38 in994.9 mb - 0.00 in0.0 mm 0.35 in8.9 mm
10:55 PM 55.7°F13.2°C 50.6°F10.3°C 83% 5.8 mph E9.3 kmh E 6.9 mph11.1 kmh 29.38 in994.9 mb - 0.00 in0.0 mm 0.35 in8.9 mm
11:00 PM 55.7°F13.2°C 50.6°F10.3°C 83% 5.8 mph E9.3 kmh E 10.4 mph16.7 kmh 29.38 in994.9 mb - 0.00 in0.0 mm 0.35 in8.9 mm
11:10 PM 55.7°F13.2°C 50.6°F10.3°C 83% 6.9 mph SE11.1 kmh SE 13.8 mph22.2 kmh 29.38 in994.9 mb - 0.00 in0.0 mm 0.35 in8.9 mm
11:15 PM 55.9°F13.3°C 50.8°F10.4°C 83% 6.9 mph E11.1 kmh E 9.2 mph14.8 kmh 29.38 in994.9 mb - 0.01 in0.3 mm 0.36 in9.1 mm
11:20 PM 56.0°F13.3°C 50.6°F10.3°C 82% 6.9 mph ESE11.1 kmh ESE 11.5 mph18.5 kmh 29.37 in994.6 mb - 0.01 in0.3 mm 0.36 in9.1 mm
11:25 PM 56.1°F13.4°C 50.7°F10.4°C 82% 10.4 mph ESE16.7 kmh ESE 12.7 mph20.4 kmh 29.37 in994.6 mb - 0.01 in0.3 mm 0.36 in9.1 mm
11:30 PM 56.2°F13.4°C 50.8°F10.4°C 82% 6.9 mph SE11.1 kmh SE 11.5 mph18.5 kmh 29.37 in994.6 mb - 0.01 in0.3 mm 0.36 in9.1 mm
11:35 PM 56.3°F13.5°C 50.9°F10.5°C 82% 8.1 mph ESE13.0 kmh ESE 10.4 mph16.7 kmh 29.37 in994.6 mb - 0.01 in0.3 mm 0.36 in9.1 mm
11:40 PM 56.2°F13.4°C 50.8°F10.4°C 82% 10.4 mph SE16.7 kmh SE 11.5 mph18.5 kmh 29.38 in994.9 mb - 0.01 in0.3 mm 0.36 in9.1 mm
11:45 PM 56.1°F13.4°C 51.0°F10.6°C 83% 6.9 mph SE11.1 kmh SE 11.5 mph18.5 kmh 29.38 in994.9 mb - 0.01 in0.3 mm 0.36 in9.1 mm
11:50 PM 55.9°F13.3°C 51.1°F10.6°C 84% 8.1 mph SE13.0 kmh SE 9.2 mph14.8 kmh 29.38 in994.9 mb - 0.01 in0.3 mm 0.36 in9.1 mm
11:55 PM 55.7°F13.2°C 51.3°F10.7°C 85% 5.8 mph SE9.3 kmh SE 11.5 mph18.5 kmh 29.38 in994.9 mb - 0.02 in0.5 mm 0.37 in9.4 mm